createdAt,value
2023-03-06T00:09:46.844Z,32.09
2023-03-06T00:19:48.084Z,32.10
2023-03-06T00:29:49.348Z,31.91
2023-03-06T00:39:50.593Z,32.06
2023-03-06T00:49:51.820Z,31.96
2023-03-06T00:59:54.212Z,31.86
2023-03-06T01:09:55.420Z,31.64
2023-03-06T01:19:56.663Z,31.60
2023-03-06T01:29:57.956Z,31.29
2023-03-06T01:39:59.217Z,31.27
2023-03-06T01:50:00.496Z,31.01
2023-03-06T02:00:01.740Z,30.89
2023-03-06T02:10:02.980Z,30.71
2023-03-06T02:20:04.248Z,30.44
2023-03-06T02:30:05.518Z,30.34
2023-03-06T02:40:06.763Z,30.29
2023-03-06T02:50:07.995Z,29.97
2023-03-06T03:00:09.220Z,29.87
2023-03-06T03:10:10.480Z,29.66
2023-03-06T03:20:11.756Z,29.92
2023-03-06T03:30:12.975Z,29.75
2023-03-06T03:40:14.256Z,29.63
2023-03-06T03:50:15.518Z,29.75
2023-03-06T04:00:16.794Z,29.41
2023-03-06T04:10:18.061Z,29.56
2023-03-06T04:20:19.310Z,29.25
2023-03-06T04:30:20.549Z,29.25
2023-03-06T04:40:21.825Z,29.38
2023-03-06T04:50:23.239Z,29.64
2023-03-06T05:00:24.507Z,29.58
2023-03-06T05:10:25.743Z,29.39
2023-03-06T05:20:26.996Z,29.48
2023-03-06T05:30:28.236Z,29.57
2023-03-06T05:40:29.499Z,29.54
2023-03-06T05:50:31.763Z,29.30
2023-03-06T06:00:33.013Z,29.33
2023-03-06T06:10:34.285Z,29.49
2023-03-06T06:20:35.565Z,29.48
2023-03-06T06:30:36.823Z,30.16
2023-03-06T06:40:38.054Z,30.79
2023-03-06T06:50:39.287Z,30.94
2023-03-06T07:00:40.550Z,31.35
2023-03-06T07:10:41.803Z,31.65
2023-03-06T07:20:43.070Z,31.77
2023-03-06T07:30:44.331Z,32.06
2023-03-06T07:40:45.596Z,32.03
2023-03-06T07:50:46.857Z,32.32
2023-03-06T08:00:48.080Z,32.64
2023-03-06T08:10:49.335Z,32.67
2023-03-06T08:20:50.588Z,32.95
2023-03-06T08:30:51.858Z,33.06
2023-03-06T08:40:53.113Z,32.94
2023-03-06T08:50:54.352Z,33.38
2023-03-06T09:00:55.628Z,33.74
2023-03-06T09:10:56.946Z,34.45
2023-03-06T09:20:58.219Z,34.53
2023-03-06T09:30:59.621Z,34.80
2023-03-06T09:41:00.916Z,35.02
2023-03-06T09:51:02.186Z,35.40
2023-03-06T10:01:03.450Z,35.38
2023-03-06T10:11:04.689Z,35.56
2023-03-06T10:21:18.870Z,35.63
2023-03-06T10:31:20.750Z,35.83
2023-03-06T10:41:24.333Z,35.90
2023-03-06T10:51:25.605Z,35.95
2023-03-06T11:01:26.880Z,36.67
2023-03-06T11:11:37.148Z,36.58
2023-03-06T11:21:38.909Z,36.54
2023-03-06T11:31:40.173Z,36.42
2023-03-06T11:41:41.436Z,35.83
2023-03-06T11:51:42.786Z,35.59
2023-03-06T12:01:44.099Z,36.17
2023-03-06T12:11:45.402Z,36.27
2023-03-06T12:21:46.673Z,36.71
2023-03-06T12:31:47.951Z,36.37
2023-03-06T12:41:49.242Z,36.16
2023-03-06T12:51:50.594Z,35.64
2023-03-06T13:01:51.941Z,35.86
2023-03-06T13:11:56.550Z,35.89
2023-03-06T13:22:05.524Z,35.47
2023-03-06T13:32:15.350Z,35.49
2023-03-06T13:42:20.523Z,35.40
2023-03-06T13:52:28.287Z,35.43
2023-03-06T14:02:39.137Z,35.38
2023-03-06T14:12:46.611Z,35.27
2023-03-06T14:22:54.799Z,34.84
2023-03-06T14:33:02.621Z,35.01
2023-03-06T14:43:12.597Z,35.86
2023-03-06T14:53:22.879Z,35.77
2023-03-06T15:03:28.410Z,36.14
2023-03-06T15:13:36.818Z,35.88
2023-03-06T15:23:44.645Z,35.42
2023-03-06T15:33:52.224Z,35.39
2023-03-06T15:43:59.949Z,35.14
2023-03-06T15:54:12.305Z,35.33
2023-03-06T16:04:17.032Z,35.68
2023-03-06T16:14:24.645Z,35.16
2023-03-06T16:24:32.875Z,35.17
2023-03-06T16:34:41.713Z,35.34
2023-03-06T16:44:50.113Z,35.22
2023-03-06T16:54:51.695Z,34.67
2023-03-06T17:04:52.994Z,34.33
2023-03-06T17:14:56.311Z,33.84
2023-03-06T17:24:57.568Z,34.16
2023-03-06T17:34:58.820Z,34.59
2023-03-06T17:45:00.081Z,34.35
2023-03-06T17:55:01.312Z,34.12
2023-03-06T18:05:03.029Z,33.95
2023-03-06T18:15:04.316Z,33.84
2023-03-06T18:25:05.586Z,33.73
2023-03-06T18:35:06.844Z,33.71
2023-03-06T18:45:08.088Z,33.46
2023-03-06T18:55:09.347Z,33.42
2023-03-06T19:05:10.632Z,33.32
2023-03-06T19:15:11.921Z,33.06
2023-03-06T19:25:13.182Z,33.19
2023-03-06T19:35:14.464Z,33.02
2023-03-06T19:45:15.744Z,32.93
2023-03-06T19:55:17.008Z,33.19
2023-03-06T20:05:18.290Z,33.12
2023-03-06T20:15:19.548Z,33.05
2023-03-06T20:25:20.769Z,33.07
2023-03-06T20:35:22.033Z,33.29
2023-03-06T20:45:23.342Z,33.27
2023-03-06T20:55:24.626Z,33.32
2023-03-06T21:05:25.909Z,33.40
2023-03-06T21:15:27.161Z,33.39
2023-03-06T21:25:28.440Z,33.31
2023-03-06T21:35:29.708Z,33.48
2023-03-06T21:45:31.039Z,33.47
2023-03-06T21:55:32.300Z,33.41
2023-03-06T22:05:33.568Z,33.59
2023-03-06T22:15:34.853Z,33.44
2023-03-06T22:25:36.112Z,33.49
2023-03-06T22:35:37.456Z,33.70
2023-03-06T22:45:38.735Z,33.84
2023-03-06T22:55:39.987Z,33.69
2023-03-06T23:05:41.210Z,33.83
2023-03-06T23:15:42.534Z,33.92
2023-03-06T23:25:43.891Z,33.95
2023-03-06T23:35:45.215Z,34.05
2023-03-06T23:45:46.510Z,33.80
2023-03-06T23:55:47.779Z,34.01
